createdAt,value
2022-12-14T00:01:38.008Z,16.33
2022-12-14T00:04:05.043Z,16.05
2022-12-14T00:06:32.883Z,15.32
2022-12-14T00:09:04.379Z,15.55
2022-12-14T00:11:33.468Z,14.70
2022-12-14T00:14:01.861Z,15.18
2022-12-14T00:16:30.808Z,15.27
2022-12-14T00:18:59.002Z,13.68
2022-12-14T00:21:26.913Z,14.68
2022-12-14T00:23:55.075Z,14.13
2022-12-14T00:26:27.584Z,13.73
2022-12-14T00:28:55.809Z,13.80
2022-12-14T00:31:23.644Z,13.48
2022-12-14T00:33:51.259Z,13.70
2022-12-14T00:36:18.364Z,12.50
2022-12-14T00:38:45.451Z,13.45
2022-12-14T00:41:12.816Z,12.73
2022-12-14T00:43:40.197Z,12.85
2022-12-14T00:46:07.369Z,12.63
2022-12-14T00:48:34.677Z,12.25
2022-12-14T00:51:01.667Z,11.93
2022-12-14T00:53:28.559Z,12.60
2022-12-14T00:55:55.629Z,11.80
2022-12-14T00:58:24.313Z,11.65
2022-12-14T01:01:03.058Z,11.93
2022-12-14T01:03:30.634Z,11.85
2022-12-14T01:05:57.938Z,11.30
2022-12-14T01:08:25.555Z,11.35
2022-12-14T01:10:53.564Z,10.85
2022-12-14T01:13:20.505Z,11.02
2022-12-14T01:15:47.492Z,11.27
2022-12-14T01:18:14.507Z,10.55
2022-12-14T01:20:41.424Z,10.88
2022-12-14T01:23:08.386Z,10.25
2022-12-14T01:25:35.315Z,10.68
2022-12-14T01:28:02.266Z,10.20
2022-12-14T01:30:29.398Z,10.75
2022-12-14T01:32:56.308Z,10.05
2022-12-14T01:35:23.239Z,10.40
2022-12-14T01:37:50.226Z,9.90
2022-12-14T01:40:17.939Z,9.77
2022-12-14T01:42:44.967Z,9.15
2022-12-14T01:45:18.656Z,9.25
2022-12-14T01:47:57.082Z,9.43
2022-12-14T01:50:29.934Z,9.85
2022-12-14T01:53:02.133Z,9.43
2022-12-14T01:55:50.552Z,9.85
2022-12-14T01:58:20.274Z,8.82
2022-12-14T02:03:25.140Z,9.13
2022-12-14T02:05:55.873Z,8.75
2022-12-14T02:10:52.206Z,8.77
2022-12-14T02:13:28.688Z,8.32
2022-12-14T02:15:55.941Z,8.40
2022-12-14T02:18:25.512Z,8.32
2022-12-14T02:21:10.885Z,9.05
2022-12-14T02:24:02.948Z,8.10
2022-12-14T02:27:12.017Z,8.32
2022-12-14T02:29:54.000Z,8.10
2022-12-14T02:32:35.585Z,7.65
2022-12-14T02:35:20.148Z,8.25
2022-12-14T02:38:05.095Z,7.90
2022-12-14T02:40:38.580Z,7.60
2022-12-14T02:43:27.617Z,8.52
2022-12-14T02:46:13.166Z,7.25
2022-12-14T02:48:44.294Z,7.32
2022-12-14T02:51:12.287Z,8.30
2022-12-14T02:54:16.159Z,7.63
2022-12-14T02:56:52.022Z,7.75
2022-12-14T02:59:19.093Z,7.75
2022-12-14T03:01:47.350Z,8.00
2022-12-14T03:04:15.405Z,7.25
2022-12-14T03:07:05.763Z,7.70
2022-12-14T03:09:33.113Z,6.75
2022-12-14T03:12:09.352Z,7.70
2022-12-14T03:14:45.330Z,7.15
2022-12-14T03:17:19.792Z,7.20
2022-12-14T03:19:54.335Z,7.03
2022-12-14T03:22:25.973Z,6.85
2022-12-14T03:24:58.389Z,7.05
2022-12-14T03:27:30.140Z,6.38
2022-12-14T03:30:00.656Z,6.90
2022-12-14T03:32:29.999Z,6.97
2022-12-14T03:34:59.980Z,6.80
2022-12-14T03:37:42.414Z,6.35
2022-12-14T03:40:11.219Z,7.00
2022-12-14T03:42:56.816Z,6.60
2022-12-14T03:45:30.033Z,6.38
2022-12-14T03:48:15.467Z,6.28
2022-12-14T03:50:44.235Z,6.15
2022-12-14T03:53:19.281Z,6.53
2022-12-14T03:55:52.379Z,6.45
2022-12-14T03:58:30.916Z,6.22
2022-12-14T04:01:36.823Z,6.03
2022-12-14T04:04:05.066Z,6.15
2022-12-14T04:06:45.681Z,6.65
2022-12-14T04:09:23.606Z,6.40
2022-12-14T04:12:17.048Z,6.18
2022-12-14T04:15:08.445Z,6.07
2022-12-14T04:17:55.744Z,6.20
2022-12-14T04:20:32.859Z,6.13
2022-12-14T04:23:05.534Z,5.70
2022-12-14T04:25:53.989Z,6.22
2022-12-14T04:28:43.906Z,5.57
2022-12-14T04:31:14.465Z,6.25
2022-12-14T04:33:48.125Z,5.15
2022-12-14T04:36:18.607Z,6.20
2022-12-14T04:38:47.110Z,5.72
2022-12-14T04:41:15.688Z,5.75
2022-12-14T04:43:44.665Z,5.57
2022-12-14T04:46:18.569Z,5.78
2022-12-14T04:49:01.378Z,5.57
2022-12-14T04:51:47.301Z,5.55
2022-12-14T04:54:25.749Z,5.80
2022-12-14T04:57:12.208Z,5.05
2022-12-14T04:59:41.485Z,5.40
2022-12-14T05:02:09.954Z,4.78
2022-12-14T05:04:42.612Z,4.88
2022-12-14T05:07:32.383Z,5.15
2022-12-14T05:10:05.502Z,4.88
2022-12-14T05:13:05.909Z,5.30
2022-12-14T05:15:42.992Z,4.90
2022-12-14T05:18:10.656Z,4.60
2022-12-14T05:20:37.521Z,5.13
2022-12-14T05:25:31.627Z,5.18
2022-12-14T05:27:58.619Z,4.70
2022-12-14T05:30:25.629Z,4.75
2022-12-14T05:32:53.303Z,4.80
2022-12-14T05:35:20.541Z,4.88
2022-12-14T05:37:49.361Z,5.18
2022-12-14T05:42:46.005Z,4.95
2022-12-14T05:45:15.934Z,4.50
2022-12-14T05:47:42.820Z,4.60
2022-12-14T05:50:10.071Z,4.85
2022-12-14T05:52:36.981Z,4.47
2022-12-14T05:55:04.979Z,4.60
2022-12-14T05:57:32.337Z,4.70
2022-12-14T06:00:00.361Z,4.60
2022-12-14T06:02:27.463Z,4.25
2022-12-14T06:04:54.491Z,4.80
2022-12-14T06:07:26.085Z,4.68
2022-12-14T06:09:54.938Z,4.47
2022-12-14T06:12:21.915Z,4.60
2022-12-14T06:14:48.846Z,4.05
2022-12-14T06:17:15.768Z,4.38
2022-12-14T06:19:43.251Z,4.65
2022-12-14T06:22:17.210Z,4.40
2022-12-14T06:24:44.158Z,4.10
2022-12-14T06:27:11.081Z,4.57
2022-12-14T06:29:37.997Z,4.72
2022-12-14T06:32:05.124Z,3.85
2022-12-14T06:34:36.898Z,4.03
2022-12-14T06:37:06.428Z,12.70
2022-12-14T06:39:33.472Z,42.50
2022-12-14T06:42:00.375Z,52.38
2022-12-14T06:44:27.399Z,50.50
2022-12-14T06:46:54.374Z,47.47
2022-12-14T06:49:21.983Z,42.97
2022-12-14T06:51:49.357Z,38.67
2022-12-14T06:54:17.494Z,34.85
2022-12-14T06:56:45.903Z,32.90
2022-12-14T06:59:15.552Z,28.40
2022-12-14T07:01:42.655Z,27.92
2022-12-14T07:04:10.159Z,24.10
2022-12-14T07:06:39.881Z,22.40
2022-12-14T07:11:34.592Z,20.67
2022-12-14T07:14:03.487Z,19.02
2022-12-14T07:16:30.644Z,17.90
2022-12-14T07:18:58.124Z,18.65
2022-12-14T07:21:26.124Z,16.38
2022-12-14T07:23:53.460Z,17.42
2022-12-14T07:26:23.270Z,15.63
2022-12-14T07:28:51.415Z,14.38
2022-12-14T07:31:21.313Z,15.02
2022-12-14T07:33:49.016Z,15.68
2022-12-14T07:36:20.262Z,14.35
2022-12-14T07:38:48.962Z,13.70
2022-12-14T07:41:28.072Z,13.57
2022-12-14T07:43:56.044Z,13.38
2022-12-14T07:46:27.219Z,12.95
2022-12-14T07:48:56.047Z,12.23
2022-12-14T07:51:25.720Z,11.73
2022-12-14T07:56:25.503Z,12.25
2022-12-14T07:58:54.188Z,12.00
2022-12-14T08:01:27.262Z,11.57
2022-12-14T08:03:59.766Z,11.80
2022-12-14T08:06:28.385Z,11.90
2022-12-14T08:08:55.659Z,10.82
2022-12-14T08:11:22.922Z,10.40
2022-12-14T08:14:01.943Z,10.68
2022-12-14T08:16:29.567Z,10.30
2022-12-14T08:18:57.944Z,10.60
2022-12-14T08:21:25.885Z,10.20
2022-12-14T08:23:53.713Z,9.75
2022-12-14T08:26:21.458Z,10.13
2022-12-14T08:28:49.281Z,9.60
2022-12-14T08:31:21.186Z,9.98
2022-12-14T08:33:48.579Z,10.43
2022-12-14T08:36:21.494Z,9.48
2022-12-14T08:38:59.474Z,9.73
2022-12-14T08:41:27.221Z,8.85
2022-12-14T08:43:56.461Z,9.20
2022-12-14T08:46:24.182Z,9.05
2022-12-14T08:48:55.012Z,8.40
2022-12-14T08:51:23.361Z,8.75
2022-12-14T08:53:51.094Z,9.23
2022-12-14T08:56:22.606Z,9.57
2022-12-14T08:58:49.613Z,9.15
2022-12-14T09:01:25.727Z,8.50
2022-12-14T09:03:57.180Z,9.07
2022-12-14T09:06:27.795Z,8.90
2022-12-14T09:08:55.638Z,8.63
2022-12-14T09:11:22.855Z,8.75
2022-12-14T09:13:53.830Z,8.05
2022-12-14T09:16:21.924Z,9.75
2022-12-14T09:18:49.615Z,8.57
2022-12-14T09:21:18.120Z,8.02
2022-12-14T09:23:45.580Z,7.97
2022-12-14T09:26:20.942Z,8.57
2022-12-14T09:28:53.329Z,8.10
2022-12-14T09:31:22.631Z,8.75
2022-12-14T09:33:49.663Z,9.02
2022-12-14T09:36:19.364Z,8.25
2022-12-14T09:41:40.963Z,8.45
2022-12-14T09:44:21.670Z,7.95
2022-12-14T09:47:21.140Z,8.55
2022-12-14T09:49:53.812Z,8.20
2022-12-14T09:52:40.184Z,8.63
2022-12-14T09:55:19.266Z,9.30
2022-12-14T09:57:48.098Z,9.15
2022-12-14T10:00:20.661Z,10.03
2022-12-14T10:03:12.494Z,8.90
2022-12-14T10:06:02.225Z,8.20
2022-12-14T10:08:41.833Z,9.13
2022-12-14T10:11:34.300Z,7.93
2022-12-14T10:14:20.171Z,8.15
2022-12-14T10:17:14.482Z,7.38
2022-12-14T10:19:57.577Z,7.40
2022-12-14T10:22:40.066Z,7.47
2022-12-14T10:25:25.153Z,7.00
2022-12-14T10:28:10.735Z,7.00
2022-12-14T10:30:38.366Z,7.28
2022-12-14T10:33:19.488Z,7.38
2022-12-14T10:36:07.045Z,6.82
2022-12-14T10:38:39.238Z,6.70
2022-12-14T10:41:29.586Z,6.75
2022-12-14T10:44:11.882Z,6.72
2022-12-14T10:46:53.876Z,6.53
2022-12-14T10:49:33.060Z,6.72
2022-12-14T10:52:12.372Z,6.05
2022-12-14T10:54:45.255Z,5.82
2022-12-14T10:57:23.359Z,6.13
2022-12-14T11:00:07.289Z,5.63
2022-12-14T11:02:41.833Z,5.63
2022-12-14T11:05:36.629Z,6.30
2022-12-14T11:08:07.373Z,5.97
2022-12-14T11:10:41.779Z,6.22
2022-12-14T11:13:19.838Z,5.80
2022-12-14T11:15:51.104Z,5.93
2022-12-14T11:18:18.172Z,6.20
2022-12-14T11:20:59.824Z,5.53
2022-12-14T11:23:29.302Z,5.88
2022-12-14T11:25:59.304Z,5.95
2022-12-14T11:28:58.489Z,5.68
2022-12-14T11:31:41.270Z,5.30
2022-12-14T11:34:32.346Z,5.68
2022-12-14T11:37:22.385Z,5.60
2022-12-14T11:39:51.719Z,5.28
2022-12-14T11:42:20.504Z,5.30
2022-12-14T11:44:49.445Z,5.87
2022-12-14T11:47:22.367Z,5.32
2022-12-14T11:49:57.901Z,5.85
2022-12-14T11:52:27.111Z,5.28
2022-12-14T11:54:56.894Z,5.60
2022-12-14T11:57:35.816Z,5.30
2022-12-14T12:00:46.817Z,5.45
2022-12-14T12:03:28.329Z,5.20
2022-12-14T12:06:00.574Z,5.05
2022-12-14T12:08:31.205Z,5.10
2022-12-14T12:11:02.221Z,5.10
2022-12-14T12:13:35.132Z,5.13
2022-12-14T12:16:06.380Z,5.28
2022-12-14T12:18:58.247Z,5.40
2022-12-14T12:21:28.468Z,5.45
2022-12-14T12:24:26.139Z,4.60
2022-12-14T12:27:02.693Z,5.00
2022-12-14T12:29:52.643Z,5.05
2022-12-14T12:32:31.971Z,4.70
2022-12-14T12:35:17.139Z,4.80
2022-12-14T12:37:49.288Z,51.58
2022-12-14T12:40:33.096Z,53.25
2022-12-14T12:45:59.850Z,44.35
2022-12-14T12:48:40.794Z,42.70
2022-12-14T12:51:14.745Z,38.00
2022-12-14T12:53:44.978Z,35.85
2022-12-14T12:56:21.977Z,33.70
2022-12-14T12:58:52.827Z,49.45
2022-12-14T13:01:36.220Z,76.47
2022-12-14T13:04:10.509Z,81.57
2022-12-14T13:06:45.135Z,80.30
2022-12-14T13:09:39.902Z,72.50
2022-12-14T13:12:12.373Z,65.30
2022-12-14T13:14:43.259Z,61.47
2022-12-14T13:17:45.747Z,55.65
2022-12-14T13:20:28.826Z,52.50
2022-12-14T13:22:59.485Z,49.17
2022-12-14T13:26:05.644Z,44.28
2022-12-14T13:28:45.431Z,43.58
2022-12-14T13:31:27.463Z,39.28
2022-12-14T13:34:17.842Z,38.88
2022-12-14T13:37:14.050Z,38.35
2022-12-14T13:40:18.552Z,33.92
2022-12-14T13:43:01.068Z,60.63
2022-12-14T13:45:38.395Z,67.18
2022-12-14T13:48:09.242Z,67.95
2022-12-14T13:50:42.359Z,63.83
2022-12-14T13:53:27.478Z,58.72
2022-12-14T13:55:58.816Z,54.17
2022-12-14T13:58:28.723Z,51.20
2022-12-14T14:01:16.098Z,47.53
2022-12-14T14:04:04.696Z,46.38
2022-12-14T14:06:36.229Z,43.73
2022-12-14T14:09:28.760Z,42.67
2022-12-14T14:11:58.635Z,38.60
2022-12-14T14:14:49.741Z,36.55
2022-12-14T14:17:49.723Z,34.38
2022-12-14T14:20:31.994Z,34.60
2022-12-14T14:23:15.447Z,31.92
2022-12-14T14:28:39.859Z,30.35
2022-12-14T14:31:07.720Z,29.30
2022-12-14T14:33:50.590Z,28.15
2022-12-14T14:36:30.968Z,28.48
2022-12-14T14:38:59.560Z,26.08
2022-12-14T14:41:34.362Z,27.40
2022-12-14T14:44:04.544Z,25.20
2022-12-14T14:46:46.890Z,24.77
2022-12-14T14:49:26.119Z,25.00
2022-12-14T14:51:53.021Z,23.23
2022-12-14T14:54:54.050Z,23.25
2022-12-14T14:57:33.427Z,21.90
2022-12-14T15:00:05.301Z,21.95
2022-12-14T15:02:34.137Z,21.95
2022-12-14T15:05:32.909Z,22.15
2022-12-14T15:07:48.851Z,21.35
2022-12-14T15:10:35.815Z,20.98
2022-12-14T15:13:06.517Z,20.80
2022-12-14T15:15:41.787Z,20.80
2022-12-14T15:18:31.587Z,35.40
2022-12-14T15:21:04.922Z,72.97
2022-12-14T15:23:39.526Z,75.40
2022-12-14T15:26:17.277Z,69.88
2022-12-14T15:28:50.512Z,62.83
2022-12-14T15:31:18.660Z,57.63
2022-12-14T15:33:47.988Z,52.42
2022-12-14T15:36:17.629Z,48.38
2022-12-14T15:41:20.574Z,40.15
2022-12-14T15:43:50.182Z,40.22
2022-12-14T15:49:00.061Z,35.65
2022-12-14T15:51:49.659Z,35.70
2022-12-14T15:54:20.280Z,32.55
2022-12-14T15:56:49.374Z,31.48
2022-12-14T15:59:31.176Z,28.42
2022-12-14T16:02:15.222Z,26.90
2022-12-14T16:04:42.894Z,26.60
2022-12-14T16:07:18.762Z,26.02
2022-12-14T16:09:52.454Z,25.58
2022-12-14T16:12:46.484Z,24.65
2022-12-14T16:15:24.279Z,23.90
2022-12-14T16:17:57.507Z,24.92
2022-12-14T16:20:31.926Z,23.40
2022-12-14T16:23:03.216Z,22.70
2022-12-14T16:25:31.670Z,22.50
2022-12-14T16:28:36.113Z,22.70
2022-12-14T16:31:06.685Z,21.90
2022-12-14T16:33:35.337Z,20.70
2022-12-14T16:36:06.884Z,20.90
2022-12-14T16:38:40.505Z,21.13
2022-12-14T16:41:07.665Z,20.17
2022-12-14T16:43:40.211Z,20.27
2022-12-14T16:46:13.511Z,19.10
2022-12-14T16:48:43.277Z,19.27
2022-12-14T16:51:32.993Z,19.73
2022-12-14T16:54:31.234Z,19.23
2022-12-14T16:57:01.851Z,19.27
2022-12-14T16:59:30.722Z,18.95
2022-12-14T17:01:58.492Z,18.27
2022-12-14T17:04:33.089Z,19.48
2022-12-14T17:07:00.469Z,18.02
2022-12-14T17:09:30.168Z,17.65
2022-12-14T17:14:28.095Z,17.60
2022-12-14T17:17:01.488Z,17.02
2022-12-14T17:19:38.611Z,17.42
2022-12-14T17:22:19.581Z,17.63
2022-12-14T17:24:46.459Z,17.13
2022-12-14T17:27:16.845Z,16.02
2022-12-14T17:29:43.841Z,16.92
2022-12-14T17:32:13.451Z,16.23
2022-12-14T17:34:40.346Z,16.67
2022-12-14T17:37:16.063Z,15.77
2022-12-14T17:39:42.977Z,17.38
2022-12-14T17:42:12.184Z,17.77
2022-12-14T17:44:40.323Z,17.45
2022-12-14T17:47:07.780Z,17.33
2022-12-14T17:49:34.629Z,17.38
2022-12-14T17:52:07.399Z,17.95
2022-12-14T17:54:34.529Z,18.17
2022-12-14T17:57:01.455Z,16.00
2022-12-14T17:59:28.427Z,17.05
2022-12-14T18:01:55.436Z,17.02
2022-12-14T18:04:22.451Z,16.60
2022-12-14T18:06:49.340Z,16.48
2022-12-14T18:09:18.495Z,15.57
2022-12-14T18:12:20.974Z,15.40
2022-12-14T18:14:32.211Z,16.08
2022-12-14T18:17:01.054Z,15.93
2022-12-14T18:19:29.895Z,15.95
2022-12-14T18:21:56.934Z,14.20
2022-12-14T18:24:26.079Z,14.40
2022-12-14T18:26:53.297Z,15.52
2022-12-14T18:29:20.842Z,14.93
2022-12-14T18:31:49.837Z,14.75
2022-12-14T18:34:17.114Z,14.98
2022-12-14T18:36:44.201Z,14.52
2022-12-14T18:39:11.064Z,14.55
2022-12-14T18:41:37.938Z,15.02
2022-12-14T18:44:05.052Z,14.90
2022-12-14T18:46:31.968Z,15.10
2022-12-14T18:48:58.906Z,14.52
2022-12-14T18:51:27.006Z,15.45
2022-12-14T18:53:55.402Z,14.38
2022-12-14T18:56:23.400Z,14.15
2022-12-14T18:58:50.776Z,14.75
2022-12-14T19:01:22.089Z,14.40
2022-12-14T19:03:49.417Z,14.00
2022-12-14T19:09:05.798Z,133.68
2022-12-14T19:11:35.975Z,123.40
2022-12-14T19:14:03.078Z,111.95
2022-12-14T19:16:30.332Z,104.90
2022-12-14T19:18:57.464Z,97.43
2022-12-14T19:21:26.303Z,91.40
2022-12-14T19:23:53.389Z,86.38
2022-12-14T19:26:21.170Z,80.65
2022-12-14T19:28:48.098Z,76.05
2022-12-14T19:31:15.100Z,73.30
2022-12-14T19:33:42.093Z,137.35
2022-12-14T19:36:09.441Z,121.72
2022-12-14T19:38:37.275Z,118.03
2022-12-14T19:41:10.547Z,117.78
2022-12-14T19:43:37.621Z,111.93
2022-12-14T19:46:08.913Z,111.85
2022-12-14T19:48:36.392Z,109.18
2022-12-14T19:51:04.931Z,106.38
2022-12-14T19:53:33.620Z,101.10
2022-12-14T19:56:00.911Z,91.35
2022-12-14T19:58:28.535Z,87.25
2022-12-14T20:00:55.533Z,81.90
2022-12-14T20:03:22.604Z,78.88
2022-12-14T20:05:55.028Z,71.15
2022-12-14T20:08:22.794Z,65.32
2022-12-14T20:10:50.427Z,60.33
2022-12-14T20:13:17.553Z,56.42
2022-12-14T20:15:51.865Z,51.05
2022-12-14T20:18:19.877Z,48.70
2022-12-14T20:20:47.664Z,45.92
2022-12-14T20:23:18.061Z,44.05
2022-12-14T20:25:45.047Z,39.40
2022-12-14T20:28:12.093Z,35.47
2022-12-14T20:30:45.884Z,37.20
2022-12-14T20:33:13.482Z,36.58
2022-12-14T20:35:40.436Z,36.35
2022-12-14T20:38:07.382Z,33.72
2022-12-14T20:40:38.435Z,33.40
2022-12-14T20:43:07.014Z,32.38
2022-12-14T20:45:42.082Z,32.60
2022-12-14T20:48:09.210Z,32.30
2022-12-14T20:50:41.763Z,30.35
2022-12-14T20:53:09.278Z,30.95
2022-12-14T20:55:36.298Z,29.45
2022-12-14T20:58:03.190Z,27.60
2022-12-14T21:00:30.496Z,27.73
2022-12-14T21:02:57.722Z,27.90
2022-12-14T21:05:25.227Z,27.27
2022-12-14T21:07:52.132Z,27.98
2022-12-14T21:10:19.138Z,27.15
2022-12-14T21:12:48.389Z,26.33
2022-12-14T21:15:15.399Z,26.80
2022-12-14T21:17:42.245Z,27.40
2022-12-14T21:20:11.507Z,27.58
2022-12-14T21:22:38.548Z,26.50
2022-12-14T21:25:06.897Z,25.25
2022-12-14T21:27:38.270Z,25.33
2022-12-14T21:30:07.266Z,25.45
2022-12-14T21:32:36.032Z,26.27
2022-12-14T21:35:03.442Z,25.60
2022-12-14T21:37:30.325Z,24.10
2022-12-14T21:39:57.167Z,25.05
2022-12-14T21:42:24.296Z,24.25
2022-12-14T21:44:52.392Z,24.42
2022-12-14T21:47:20.472Z,23.33
2022-12-14T21:49:48.026Z,23.15
2022-12-14T21:52:17.699Z,23.83
2022-12-14T21:57:34.498Z,43.53
2022-12-14T22:00:02.143Z,74.70
2022-12-14T22:02:29.623Z,91.35
2022-12-14T22:04:56.729Z,96.43
2022-12-14T22:07:30.588Z,89.38
2022-12-14T22:09:57.547Z,82.65
2022-12-14T22:12:24.546Z,77.35
2022-12-14T22:14:51.422Z,71.22
2022-12-14T22:17:18.391Z,62.17
2022-12-14T22:19:45.263Z,55.65
2022-12-14T22:22:15.999Z,54.47
2022-12-14T22:24:43.540Z,50.45
2022-12-14T22:27:13.675Z,46.83
2022-12-14T22:29:40.533Z,44.78
2022-12-14T22:32:08.464Z,43.15
2022-12-14T22:34:35.450Z,41.90
2022-12-14T22:37:02.295Z,40.58
2022-12-14T22:39:29.210Z,39.67
2022-12-14T22:41:56.698Z,39.85
2022-12-14T22:44:23.576Z,36.40
2022-12-14T22:46:50.454Z,35.92
2022-12-14T22:49:19.182Z,36.72
2022-12-14T22:51:46.175Z,33.70
2022-12-14T22:56:57.339Z,32.80
2022-12-14T22:59:32.794Z,31.83
2022-12-14T23:01:59.980Z,32.47
2022-12-14T23:04:27.030Z,32.20
2022-12-14T23:06:55.027Z,30.83
2022-12-14T23:09:40.430Z,30.95
2022-12-14T23:12:25.704Z,29.65
2022-12-14T23:15:11.260Z,28.95
2022-12-14T23:17:56.538Z,30.02
2022-12-14T23:20:41.878Z,29.15
2022-12-14T23:23:27.909Z,28.35
2022-12-14T23:26:13.984Z,28.33
2022-12-14T23:28:59.241Z,27.52
2022-12-14T23:31:44.716Z,27.42
2022-12-14T23:34:30.106Z,27.00
2022-12-14T23:37:20.064Z,27.25
2022-12-14T23:40:06.630Z,25.83
2022-12-14T23:42:51.953Z,27.02
2022-12-14T23:45:37.485Z,24.98
2022-12-14T23:48:22.840Z,25.35
2022-12-14T23:51:08.493Z,25.73
2022-12-14T23:53:53.822Z,24.38
2022-12-14T23:56:39.217Z,24.70
2022-12-14T23:59:29.823Z,25.58
